Sointula, Canada
Current Conditions -  °F | °C
As of 2:21 PM on Sunday 21 Dec 2014 (Local Time) from CYZT Reporting Station
Rain Showers Rain Showers  
Wind Chill: 42°   Ceiling: 6000
Heat Index: 46°   Visibility: 15mi
Dew Point: 43°   Wind: 8mph
Humidity: 87%   Direction: 220°SW
Pressure: 29.86"   Gusts: NA
Location:  50.63°N, 127.02°W
Report Text: CYZT 212221Z 22007KT 15SM -SHRA FEW026 BKN060 BKN084 08/06 A2986 RMK CU1SC5AC1 SLP111
Loading
Personal Weather Stations






























Interactive Weather Map New forecast layout! Learn more

10-Day Weather Forecast

Advertisements
Track Severe Weather on mobile